Time;durP1;ratioP1;P1;durP2;ratioP2;P2;SDS_P1;SDS_P2;PMS_P1;PMS_P2;Temp;Humidity;BMP_temperature;BMP_pressure;BME280_temperature;BME280_humidity;BME280_pressure;Samples;Min_cycle;Max_cycle;Signal;HPM_P1;HPM_P2
2021/01/26 00:02:05;;;;;;;3.25;2.10;;;;;;;;;;5131090;28;20046;-66
2021/01/26 00:04:31;;;;;;;3.65;2.25;;;;;;;;;;5130118;28;20058;-66
2021/01/26 00:06:57;;;;;;;2.80;2.28;;;;;;;;;;5130698;28;20538;-66
2021/01/26 00:09:24;;;;;;;1.85;1.63;;;;;;;;;;5130868;28;20436;-66
2021/01/26 00:11:50;;;;;;;2.17;1.98;;;;;;;;;;5130984;28;20092;-66
2021/01/26 00:14:16;;;;;;;1.77;1.67;;;;;;;;;;5130715;28;20454;-66
2021/01/26 00:16:42;;;;;;;2.35;2.15;;;;;;;;;;5130793;28;20473;-66
2021/01/26 00:19:08;;;;;;;3.45;1.65;;;;;;;;;;5131076;28;20027;-66
2021/01/26 00:21:34;;;;;;;2.17;1.63;;;;;;;;;;5130635;28;20027;-66
2021/01/26 00:24:00;;;;;;;4.70;2.38;;;;;;;;;;5131335;28;20098;-66
2021/01/26 00:26:26;;;;;;;2.30;2.08;;;;;;;;;;5130575;28;20028;-66
2021/01/26 00:28:52;;;;;;;1.98;1.85;;;;;;;;;;5131674;27;20035;-66
2021/01/26 00:31:18;;;;;;;2.70;2.05;;;;;;;;;;5134475;27;20083;-66
2021/01/26 00:33:44;;;;;;;3.03;1.95;;;;;;;;;;5134500;27;20034;-66
2021/01/26 00:36:10;;;;;;;1.92;1.73;;;;;;;;;;5134456;27;20635;-67
2021/01/26 00:38:36;;;;;;;2.30;2.10;;;;;;;;;;5133747;27;20035;-66
2021/01/26 00:41:02;;;;;;;2.95;1.83;;;;;;;;;;5135140;27;20106;-66
2021/01/26 00:43:29;;;;;;;1.63;1.52;;;;;;;;;;5133590;27;20058;-66
2021/01/26 00:45:55;;;;;;;3.78;1.90;;;;;;;;;;5134392;27;20027;-66
2021/01/26 00:48:21;;;;;;;2.78;1.17;;;;;;;;;;5133622;27;20545;-66
2021/01/26 00:50:47;;;;;;;3.28;1.60;;;;;;;;;;5135411;27;20388;-66
2021/01/26 00:53:14;;;;;;;1.73;1.63;;;;;;;;;;5134428;27;20019;-66
2021/01/26 00:55:40;;;;;;;2.63;2.30;;;;;;;;;;5134543;27;20035;-66
2021/01/26 00:58:07;;;;;;;1.75;1.65;;;;;;;;;;5134836;27;20027;-66
2021/01/26 01:00:34;;;;;;;2.53;2.05;;;;;;;;;;5134138;27;20031;-66
2021/01/26 01:03:00;;;;;;;2.05;1.95;;;;;;;;;;5134872;27;20027;-66
2021/01/26 01:05:27;;;;;;;1.90;1.70;;;;;;;;;;5133649;27;20063;-66
2021/01/26 01:07:53;;;;;;;1.10;1.10;;;;;;;;;;5133803;27;20114;-66
2021/01/26 01:10:21;;;;;;;1.70;1.60;;;;;;;;;;5133763;27;20548;-66
2021/01/26 01:12:47;;;;;;;2.95;2.05;;;;;;;;;;5134764;27;20060;-66
2021/01/26 01:15:14;;;;;;;1.77;1.50;;;;;;;;;;5133711;27;20489;-66
2021/01/26 01:17:40;;;;;;;4.97;2.13;;;;;;;;;;5133881;27;20015;-66
2021/01/26 01:20:08;;;;;;;1.50;1.40;;;;;;;;;;5134725;27;20027;-66
2021/01/26 01:22:34;;;;;;;1.80;1.70;;;;;;;;;;5115845;27;20667;-66
2021/01/26 01:25:00;;;;;;;1.10;1.00;;;;;;;;;;5113611;28;20027;-66
2021/01/26 01:27:26;;;;;;;1.17;1.17;;;;;;;;;;5112823;28;20034;-66
2021/01/26 01:29:52;;;;;;;3.63;1.77;;;;;;;;;;5113797;28;20419;-66
2021/01/26 01:32:18;;;;;;;1.55;1.02;;;;;;;;;;5112907;28;20028;-66
2021/01/26 01:34:44;;;;;;;1.90;1.40;;;;;;;;;;5113445;28;20031;-66
2021/01/26 01:37:11;;;;;;;2.05;1.65;;;;;;;;;;5112990;28;20028;-66
2021/01/26 01:39:37;;;;;;;2.55;1.92;;;;;;;;;;5113070;28;20020;-66
2021/01/26 01:42:08;;;;;;;3.20;2.00;;;;;;;;;;5112459;28;20035;-66
2021/01/26 01:44:35;;;;;;;2.00;1.67;;;;;;;;;;5112470;28;20031;-66
2021/01/26 01:47:03;;;;;;;1.52;1.35;;;;;;;;;;5113075;28;20036;-66
2021/01/26 01:49:31;;;;;;;1.92;1.80;;;;;;;;;;5110688;28;20406;-66
2021/01/26 01:51:58;;;;;;;2.90;1.85;;;;;;;;;;5111484;28;20120;-66
2021/01/26 01:54:27;;;;;;;2.47;1.58;;;;;;;;;;5129742;27;20435;-66
2021/01/26 01:57:01;;;;;;;3.03;2.03;;;;;;;;;;5131760;27;20035;-66
2021/01/26 01:59:32;;;;;;;2.55;2.17;;;;;;;;;;5130879;27;20034;-66
2021/01/26 02:01:58;;;;;;;1.77;1.67;;;;;;;;;;5131500;27;20023;-66
2021/01/26 02:04:25;;;;;;;2.53;2.33;;;;;;;;;;5130012;27;20429;-66
2021/01/26 02:06:52;;;;;;;1.73;1.63;;;;;;;;;;5129622;27;20042;-66
2021/01/26 02:09:29;;;;;;;2.17;1.95;;;;;;;;;;5130546;27;20515;-66
2021/01/26 02:11:55;;;;;;;2.58;2.00;;;;;;;;;;5131844;27;20027;-66
2021/01/26 02:14:21;;;;;;;2.72;2.53;;;;;;;;;;5130690;27;20031;-66
2021/01/26 02:16:58;;;;;;;3.33;3.03;;;;;;;;;;5130438;27;20011;-66
2021/01/26 02:19:36;;;;;;;3.50;3.20;;;;;;;;;;5129987;27;20057;-66
2021/01/26 02:22:32;;;;;;;2.72;2.25;;;;;;;;;;5131670;27;20023;-66
2021/01/26 02:25:01;;;;;;;3.10;2.72;;;;;;;;;;5130980;27;20023;-66
2021/01/26 02:27:43;;;;;;;3.45;3.17;;;;;;;;;;5129540;27;20481;-66
2021/01/26 02:30:09;;;;;;;3.60;3.30;;;;;;;;;;5131298;27;20039;-66
2021/01/26 02:32:53;;;;;;;3.67;3.30;;;;;;;;;;5131224;27;20023;-66
2021/01/26 02:35:29;;;;;;;2.35;2.13;;;;;;;;;;5129953;27;20616;-66
2021/01/26 02:37:55;;;;;;;2.63;2.30;;;;;;;;;;5118141;27;20024;-66
2021/01/26 02:40:24;;;;;;;3.70;3.40;;;;;;;;;;5109442;28;20102;-66
2021/01/26 02:42:50;;;;;;;3.00;2.70;;;;;;;;;;5110731;28;20432;-66
2021/01/26 02:45:19;;;;;;;2.50;2.15;;;;;;;;;;5109465;28;20023;-66
2021/01/26 02:47:57;;;;;;;3.03;2.75;;;;;;;;;;5108214;28;20032;-66
2021/01/26 02:50:23;;;;;;;2.60;2.40;;;;;;;;;;5109888;28;20028;-66
2021/01/26 02:53:00;;;;;;;1.85;1.67;;;;;;;;;;5109147;28;20061;-66
2021/01/26 02:55:46;;;;;;;3.08;2.05;;;;;;;;;;5109550;28;20055;-66
2021/01/26 02:58:18;;;;;;;2.50;2.30;;;;;;;;;;5107663;28;20023;-66
2021/01/26 03:00:47;;;;;;;2.47;2.05;;;;;;;;;;5110161;28;20034;-66
2021/01/26 03:03:16;;;;;;;1.90;1.80;;;;;;;;;;5109673;28;20030;-66
2021/01/26 03:05:45;;;;;;;5.25;2.47;;;;;;;;;;5123180;27;20066;-66
2021/01/26 03:08:15;;;;;;;3.33;1.73;;;;;;;;;;5127537;27;20038;-66
2021/01/26 03:10:49;;;;;;;2.00;1.80;;;;;;;;;;5130096;27;20030;-66
2021/01/26 03:13:16;;;;;;;2.70;2.45;;;;;;;;;;5130243;27;20413;-66
2021/01/26 03:15:54;;;;;;;1.85;1.75;;;;;;;;;;5130581;27;20027;-66
2021/01/26 03:18:22;;;;;;;2.38;2.17;;;;;;;;;;5128123;27;20034;-66
2021/01/26 03:20:52;;;;;;;2.20;2.00;;;;;;;;;;5126988;27;20069;-66
2021/01/26 03:23:22;;;;;;;2.42;2.08;;;;;;;;;;5109290;28;20028;-66
2021/01/26 03:25:49;;;;;;;1.80;1.70;;;;;;;;;;5109813;28;20038;-66
2021/01/26 03:28:16;;;;;;;2.00;1.77;;;;;;;;;;5107321;28;20028;-66
2021/01/26 03:30:44;;;;;;;3.20;1.60;;;;;;;;;;5109895;28;20031;-66
2021/01/26 03:33:25;;;;;;;2.20;1.88;;;;;;;;;;5109467;28;20024;-66
2021/01/26 03:35:51;;;;;;;2.75;1.65;;;;;;;;;;5110022;28;20031;-66
2021/01/26 03:38:27;;;;;;;2.72;2.10;;;;;;;;;;5107198;28;20023;-66
2021/01/26 03:40:54;;;;;;;2.00;1.48;;;;;;;;;;5109197;28;20031;-66
2021/01/26 03:43:21;;;;;;;1.42;1.33;;;;;;;;;;5108621;28;20093;-66
2021/01/26 03:45:54;;;;;;;4.10;2.53;;;;;;;;;;5109376;28;20031;-66
2021/01/26 03:48:43;;;;;;;1.98;1.63;;;;;;;;;;5107946;28;20096;-66
2021/01/26 03:51:16;;;;;;;2.28;2.08;;;;;;;;;;5069886;28;20118;-66
2021/01/26 03:54:00;;;;;;;3.05;2.80;;;;;;;;;;5122147;28;20180;-66
2021/01/26 03:56:50;;;;;;;2.10;1.90;;;;;;;;;;5128559;28;20489;-66
2021/01/26 03:59:21;;;;;;;3.30;2.78;;;;;;;;;;5115674;28;20066;-66
2021/01/26 04:02:03;;;;;;;4.38;3.30;;;;;;;;;;5129323;28;20015;-66
2021/01/26 04:04:33;;;;;;;2.35;2.15;;;;;;;;;;5125461;27;20079;-66
2021/01/26 04:07:00;;;;;;;2.95;2.40;;;;;;;;;;5109795;28;20829;-66
2021/01/26 04:09:28;;;;;;;2.92;2.70;;;;;;;;;;5108760;28;20491;-66
2021/01/26 04:12:02;;;;;;;3.05;2.75;;;;;;;;;;5113396;28;20038;-66
2021/01/26 04:14:31;;;;;;;3.20;2.80;;;;;;;;;;5113396;28;20050;-66
2021/01/26 04:17:11;;;;;;;3.65;3.35;;;;;;;;;;5112871;28;20088;-66
2021/01/26 04:19:42;;;;;;;3.67;3.38;;;;;;;;;;5112365;28;20031;-66
2021/01/26 04:22:09;;;;;;;3.47;2.95;;;;;;;;;;5112271;28;20088;-66
2021/01/26 04:24:36;;;;;;;3.05;2.65;;;;;;;;;;5113467;28;20031;-66
2021/01/26 04:27:05;;;;;;;2.45;2.25;;;;;;;;;;5112800;28;20085;-66
2021/01/26 04:29:32;;;;;;;2.63;2.42;;;;;;;;;;5111581;28;20381;-66
2021/01/26 04:31:58;;;;;;;3.05;2.58;;;;;;;;;;5113195;28;20028;-66
2021/01/26 04:34:24;;;;;;;2.22;2.03;;;;;;;;;;5112895;28;20066;-66
2021/01/26 04:36:50;;;;;;;1.88;1.70;;;;;;;;;;5113417;27;20603;-66
2021/01/26 04:39:16;;;;;;;2.45;1.95;;;;;;;;;;5131771;27;20134;-66
2021/01/26 04:41:44;;;;;;;2.00;1.83;;;;;;;;;;5133199;27;20035;-66
2021/01/26 04:44:12;;;;;;;1.75;1.58;;;;;;;;;;5132224;27;20030;-66
2021/01/26 04:46:57;;;;;;;1.50;1.40;;;;;;;;;;5133601;27;20024;-66
2021/01/26 04:49:23;;;;;;;1.65;1.55;;;;;;;;;;5131685;27;20035;-66
2021/01/26 04:51:49;;;;;;;1.25;1.15;;;;;;;;;;5132992;27;20465;-66
2021/01/26 04:54:16;;;;;;;1.77;1.67;;;;;;;;;;5132635;27;20613;-66
2021/01/26 04:56:51;;;;;;;2.42;1.20;;;;;;;;;;5133632;27;20019;-66
2021/01/26 04:59:20;;;;;;;1.45;1.20;;;;;;;;;;5131597;27;20066;-66
2021/01/26 05:01:53;;;;;;;1.48;1.33;;;;;;;;;;5133025;27;20023;-66
2021/01/26 05:04:25;;;;;;;1.40;1.30;;;;;;;;;;5131430;27;20038;-66
2021/01/26 05:06:53;;;;;;;4.10;1.90;;;;;;;;;;5132144;27;20058;-66
2021/01/26 05:09:22;;;;;;;1.35;1.25;;;;;;;;;;5130899;27;20035;-66
2021/01/26 05:11:48;;;;;;;1.08;1.00;;;;;;;;;;5131502;27;20389;-66
2021/01/26 05:14:22;;;;;;;1.52;1.13;;;;;;;;;;5132631;27;20063;-66
2021/01/26 05:16:54;;;;;;;1.50;1.35;;;;;;;;;;5132584;27;20388;-66
2021/01/26 05:19:24;;;;;;;1.38;1.27;;;;;;;;;;5131309;27;20038;-66
2021/01/26 05:21:53;;;;;;;1.85;1.55;;;;;;;;;;5131543;27;20080;-66
2021/01/26 05:24:33;;;;;;;2.83;2.03;;;;;;;;;;5130744;27;20691;-66
2021/01/26 05:27:01;;;;;;;1.55;1.45;;;;;;;;;;5132238;27;20076;-66
2021/01/26 05:29:28;;;;;;;2.10;1.98;;;;;;;;;;5131275;27;20054;-66
2021/01/26 05:31:56;;;;;;;1.20;1.10;;;;;;;;;;5131477;27;20027;-66
2021/01/26 05:34:22;;;;;;;1.73;1.45;;;;;;;;;;5131581;27;20031;-66
2021/01/26 05:36:49;;;;;;;2.17;1.85;;;;;;;;;;5129890;27;20031;-66
2021/01/26 05:39:19;;;;;;;2.63;1.98;;;;;;;;;;5130422;27;20653;-66
2021/01/26 05:41:45;;;;;;;2.65;1.98;;;;;;;;;;5131515;27;20050;-66
2021/01/26 05:44:11;;;;;;;2.17;1.98;;;;;;;;;;5129935;27;20076;-66
2021/01/26 05:46:40;;;;;;;2.50;2.22;;;;;;;;;;5131966;27;20027;-66
2021/01/26 05:49:06;;;;;;;2.53;2.33;;;;;;;;;;5129431;27;20043;-66
2021/01/26 05:51:33;;;;;;;1.98;1.85;;;;;;;;;;5132232;27;20054;-66
2021/01/26 05:54:02;;;;;;;2.75;2.00;;;;;;;;;;5130645;27;20027;-66
2021/01/26 05:56:29;;;;;;;2.05;1.85;;;;;;;;;;5131766;27;20553;-66
2021/01/26 05:58:56;;;;;;;1.80;1.70;;;;;;;;;;5130654;27;20377;-66
2021/01/26 06:01:34;;;;;;;1.67;1.20;;;;;;;;;;5130058;27;20030;-66
2021/01/26 06:04:06;;;;;;;2.28;2.08;;;;;;;;;;5130473;27;20027;-66
2021/01/26 06:06:32;;;;;;;1.52;1.42;;;;;;;;;;5130223;27;20114;-66
2021/01/26 06:08:58;;;;;;;1.70;1.60;;;;;;;;;;5129768;27;20035;-66
2021/01/26 06:11:29;;;;;;;2.03;1.92;;;;;;;;;;5130801;27;20027;-66
2021/01/26 06:14:16;;;;;;;1.92;1.83;;;;;;;;;;5131034;27;20075;-66
2021/01/26 06:16:43;;;;;;;1.02;0.95;;;;;;;;;;5130974;27;20027;-66
2021/01/26 06:19:14;;;;;;;2.00;1.45;;;;;;;;;;5129439;27;20122;-66
2021/01/26 06:21:47;;;;;;;1.30;1.17;;;;;;;;;;5131488;27;20020;-66
2021/01/26 06:24:17;;;;;;;1.10;0.80;;;;;;;;;;5130168;27;20402;-66
2021/01/26 06:26:46;;;;;;;2.30;1.08;;;;;;;;;;5125511;27;20023;-66
2021/01/26 06:29:20;;;;;;;1.00;1.00;;;;;;;;;;5127108;27;20096;-66
2021/01/26 06:31:59;;;;;;;1.13;0.82;;;;;;;;;;5131299;27;20084;-66
2021/01/26 06:34:37;;;;;;;1.05;0.90;;;;;;;;;;5131177;27;20023;-68
2021/01/26 06:37:03;;;;;;;1.25;1.15;;;;;;;;;;5126507;27;20477;-68
2021/01/26 06:39:35;;;;;;;1.10;1.00;;;;;;;;;;5130066;27;20046;-66
2021/01/26 06:42:17;;;;;;;2.08;1.23;;;;;;;;;;5129248;27;20069;-66
2021/01/26 06:44:43;;;;;;;1.23;1.13;;;;;;;;;;5127667;27;20114;-66
2021/01/26 06:47:19;;;;;;;1.30;1.15;;;;;;;;;;5128790;27;20019;-66
2021/01/26 06:49:49;;;;;;;1.33;1.25;;;;;;;;;;5126308;27;20045;-66
2021/01/26 06:52:15;;;;;;;0.68;0.68;;;;;;;;;;5125789;27;20035;-66
2021/01/26 06:54:59;;;;;;;0.70;0.70;;;;;;;;;;5128678;27;20118;-66
2021/01/26 06:57:44;;;;;;;0.75;0.55;;;;;;;;;;5127234;27;20035;-65
2021/01/26 07:00:24;;;;;;;4.75;1.00;;;;;;;;;;5126413;27;20699;-65
2021/01/26 07:02:53;;;;;;;1.38;0.88;;;;;;;;;;5127764;27;20031;-65
2021/01/26 07:05:20;;;;;;;0.77;0.77;;;;;;;;;;5123730;27;20174;-65
2021/01/26 07:08:12;;;;;;;1.25;0.88;;;;;;;;;;5118748;27;20079;-65
2021/01/26 07:10:50;;;;;;;1.20;0.60;;;;;;;;;;5100327;27;20103;-65
2021/01/26 07:13:16;;;;;;;1.40;1.30;;;;;;;;;;5126305;27;20066;-65
2021/01/26 07:16:08;;;;;;;0.82;0.80;;;;;;;;;;5128850;27;20023;-65
2021/01/26 07:18:44;;;;;;;1.75;1.65;;;;;;;;;;5127059;27;20027;-65
2021/01/26 07:21:12;;;;;;;1.05;1.05;;;;;;;;;;5124772;27;20035;-65
2021/01/26 07:23:45;;;;;;;0.93;0.73;;;;;;;;;;5111349;27;20035;-66
2021/01/26 07:26:29;;;;;;;1.52;1.42;;;;;;;;;;5117197;27;20050;-67
2021/01/26 07:28:55;;;;;;;0.65;0.65;;;;;;;;;;5121027;27;20031;-67
2021/01/26 07:31:24;;;;;;;1.85;0.70;;;;;;;;;;5121861;27;20019;-67
2021/01/26 07:34:01;;;;;;;0.98;0.65;;;;;;;;;;5122761;27;20123;-66
2021/01/26 07:36:36;;;;;;;1.85;1.75;;;;;;;;;;5125591;27;20114;-67
2021/01/26 07:39:06;;;;;;;1.55;1.40;;;;;;;;;;5119526;27;20015;-67
2021/01/26 07:41:38;;;;;;;1.98;1.80;;;;;;;;;;5126837;27;20523;-66
2021/01/26 07:44:04;;;;;;;2.92;2.20;;;;;;;;;;5130877;27;20469;-67
2021/01/26 07:46:38;;;;;;;2.30;1.95;;;;;;;;;;5120040;27;20015;-67
2021/01/26 07:49:19;;;;;;;3.20;1.85;;;;;;;;;;5119985;27;20035;-67
2021/01/26 07:51:47;;;;;;;2.10;1.67;;;;;;;;;;5124358;28;20061;-67
2021/01/26 07:54:20;;;;;;;2.22;1.55;;;;;;;;;;5112639;28;20023;-66
2021/01/26 07:56:46;;;;;;;1.30;1.20;;;;;;;;;;5119617;28;20041;-65
2021/01/26 07:59:15;;;;;;;3.63;1.52;;;;;;;;;;5112696;27;20035;-66
2021/01/26 08:01:46;;;;;;;0.90;0.85;;;;;;;;;;5116121;28;20023;-65
2021/01/26 08:04:13;;;;;;;1.73;1.08;;;;;;;;;;5112360;28;20493;-66
2021/01/26 08:06:39;;;;;;;1.83;1.05;;;;;;;;;;5113334;28;20033;-65
2021/01/26 08:09:06;;;;;;;1.60;1.08;;;;;;;;;;5113931;28;20035;-65
2021/01/26 08:11:33;;;;;;;2.60;1.20;;;;;;;;;;5114829;27;20111;-66
2021/01/26 08:13:59;;;;;;;3.45;1.50;;;;;;;;;;5116795;27;20396;-65
2021/01/26 08:16:32;;;;;;;1.15;0.80;;;;;;;;;;5117411;28;20031;-65
2021/01/26 08:18:59;;;;;;;5.90;2.08;;;;;;;;;;5116783;28;20036;-66
2021/01/26 08:21:33;;;;;;;3.42;1.48;;;;;;;;;;5116225;28;20039;-65
2021/01/26 08:24:14;;;;;;;2.45;1.83;;;;;;;;;;5116656;27;20096;-68
2021/01/26 08:26:40;;;;;;;1.85;1.35;;;;;;;;;;5121252;27;20038;-65
2021/01/26 08:29:06;;;;;;;6.90;3.08;;;;;;;;;;5119958;27;20077;-66
2021/01/26 08:31:39;;;;;;;1.88;1.77;;;;;;;;;;5118284;28;20477;-66
2021/01/26 08:34:24;;;;;;;2.20;1.48;;;;;;;;;;5121420;27;20480;-65
2021/01/26 08:37:25;;;;;;;2.97;2.25;;;;;;;;;;5121774;27;20063;-66
2021/01/26 08:39:52;;;;;;;4.20;2.70;;;;;;;;;;5036020;28;20108;-66
2021/01/26 08:42:37;;;;;;;2.40;2.13;;;;;;;;;;5101957;27;20043;-74
2021/01/26 08:45:03;;;;;;;2.70;2.15;;;;;;;;;;5120359;27;20023;-67
2021/01/26 08:48:02;;;;;;;4.93;3.17;;;;;;;;;;5123782;27;20027;-67
2021/01/26 08:50:29;;;;;;;3.05;2.15;;;;;;;;;;5093997;27;20400;-65
2021/01/26 08:53:14;;;;;;;3.15;2.60;;;;;;;;;;5123627;27;20035;-65
2021/01/26 08:55:41;;;;;;;4.57;3.72;;;;;;;;;;5127849;27;20399;-65
2021/01/26 08:58:10;;;;;;;3.70;3.08;;;;;;;;;;5125583;27;20078;-65
2021/01/26 09:00:37;;;;;;;3.28;2.97;;;;;;;;;;5121855;27;20088;-66
2021/01/26 09:03:22;;;;;;;5.93;3.40;;;;;;;;;;5121130;27;20023;-66
2021/01/26 09:05:48;;;;;;;4.78;3.20;;;;;;;;;;5124240;27;20532;-66
2021/01/26 09:08:34;;;;;;;3.47;2.05;;;;;;;;;;5123612;27;20037;-66
2021/01/26 09:11:00;;;;;;;3.60;3.22;;;;;;;;;;5122583;27;20039;-65
2021/01/26 09:13:34;;;;;;;3.85;2.53;;;;;;;;;;5120748;27;20051;-66
2021/01/26 09:16:00;;;;;;;;;;;;;;;;;;5125768;27;20473;-66
2021/01/26 09:18:27;;;;;;;12.95;3.90;;;;;;;;;;5126943;27;21347;-66
2021/01/26 09:20:58;;;;;;;4.15;3.78;;;;;;;;;;5122431;27;20102;-66
2021/01/26 09:23:25;;;;;;;3.30;3.00;;;;;;;;;;5121641;27;20888;-67
2021/01/26 09:25:51;;;;;;;4.68;3.33;;;;;;;;;;5126752;27;20135;-67
2021/01/26 09:28:19;;;;;;;3.45;3.13;;;;;;;;;;5125175;27;20103;-67
2021/01/26 09:30:47;;;;;;;4.80;3.45;;;;;;;;;;5125648;27;20035;-65
2021/01/26 09:33:13;;;;;;;7.38;3.13;;;;;;;;;;5122411;27;20038;-64
2021/01/26 09:35:43;;;;;;;4.85;4.32;;;;;;;;;;5124821;27;20114;-66
2021/01/26 09:38:18;;;;;;;2.95;2.65;;;;;;;;;;5122671;27;20370;-66
2021/01/26 09:40:47;;;;;;;4.68;2.80;;;;;;;;;;5125716;27;20031;-66
2021/01/26 09:43:18;;;;;;;4.13;3.40;;;;;;;;;;5122572;27;20034;-65
2021/01/26 09:45:45;;;;;;;3.08;2.65;;;;;;;;;;5122968;27;20579;-66
2021/01/26 09:48:17;;;;;;;3.50;3.20;;;;;;;;;;5122401;27;20035;-65
2021/01/26 09:50:43;;;;;;;4.05;3.00;;;;;;;;;;5124427;27;20027;-66
2021/01/26 09:53:09;;;;;;;4.05;3.03;;;;;;;;;;5122952;27;20058;-66
2021/01/26 09:55:36;;;;;;;4.55;2.95;;;;;;;;;;5125765;27;20185;-65
2021/01/26 09:58:02;;;;;;;4.85;3.60;;;;;;;;;;5125445;27;20023;-66
2021/01/26 10:00:29;;;;;;;3.80;3.50;;;;;;;;;;5125444;27;20509;-69
2021/01/26 10:02:57;;;;;;;3.38;3.05;;;;;;;;;;5122104;27;20132;-66
2021/01/26 10:05:24;;;;;;;3.70;3.05;;;;;;;;;;5124563;27;20055;-68
2021/01/26 10:08:05;;;;;;;3.78;2.92;;;;;;;;;;5125151;27;20035;-66
2021/01/26 10:10:32;;;;;;;2.40;2.20;;;;;;;;;;5125706;27;20058;-66
2021/01/26 10:13:18;;;;;;;4.05;3.03;;;;;;;;;;5123100;27;20039;-67
2021/01/26 10:15:44;;;;;;;3.50;3.00;;;;;;;;;;5124086;27;20142;-65
2021/01/26 10:18:15;;;;;;;4.75;3.53;;;;;;;;;;5122330;27;20031;-65
2021/01/26 10:20:47;;;;;;;3.40;3.13;;;;;;;;;;5124007;27;20023;-66
2021/01/26 10:23:15;;;;;;;2.55;2.35;;;;;;;;;;5121522;27;20043;-66
2021/01/26 10:25:43;;;;;;;6.32;4.20;;;;;;;;;;5123702;27;20034;-66
2021/01/26 10:28:11;;;;;;;4.00;2.40;;;;;;;;;;5125159;27;20031;-66
2021/01/26 10:30:42;;;;;;;3.05;2.42;;;;;;;;;;5123900;27;20027;-65
2021/01/26 10:33:08;;;;;;;4.97;2.58;;;;;;;;;;5121301;27;20392;-66
2021/01/26 10:35:36;;;;;;;3.70;2.70;;;;;;;;;;5125090;27;20480;-66
2021/01/26 10:38:21;;;;;;;4.50;4.10;;;;;;;;;;5125717;27;20408;-70
2021/01/26 10:40:47;;;;;;;3.40;3.05;;;;;;;;;;5125136;27;20094;-66
2021/01/26 10:43:31;;;;;;;2.95;2.42;;;;;;;;;;5123906;27;20027;-66
2021/01/26 10:45:57;;;;;;;2.40;2.20;;;;;;;;;;5124051;27;20118;-66
2021/01/26 10:48:27;;;;;;;3.00;2.38;;;;;;;;;;5125799;27;20031;-66
2021/01/26 10:50:56;;;;;;;2.25;2.15;;;;;;;;;;5124661;27;20039;-66
2021/01/26 10:53:32;;;;;;;2.78;2.13;;;;;;;;;;5121020;27;20039;-66
2021/01/26 10:55:58;;;;;;;2.90;2.70;;;;;;;;;;5124334;27;20404;-66
2021/01/26 10:58:24;;;;;;;2.88;2.67;;;;;;;;;;5123310;27;20884;-66
2021/01/26 11:00:51;;;;;;;3.55;3.17;;;;;;;;;;5123367;27;20039;-66
2021/01/26 11:03:17;;;;;;;1.80;1.70;;;;;;;;;;5113392;27;20031;-66
2021/01/26 11:05:43;;;;;;;3.17;2.88;;;;;;;;;;5123031;27;20046;-65
2021/01/26 11:08:10;;;;;;;3.45;2.88;;;;;;;;;;5120301;27;20072;-67
2021/01/26 11:10:36;;;;;;;3.67;2.78;;;;;;;;;;5122231;27;20030;-66
2021/01/26 11:13:03;;;;;;;2.33;1.80;;;;;;;;;;5119452;27;20030;-66
2021/01/26 11:15:29;;;;;;;2.28;2.03;;;;;;;;;;5122216;27;20080;-66
2021/01/26 11:17:55;;;;;;;2.08;1.98;;;;;;;;;;5122213;27;20027;-66
2021/01/26 11:20:22;;;;;;;2.97;2.53;;;;;;;;;;5124345;27;20170;-66
2021/01/26 11:22:48;;;;;;;2.00;1.85;;;;;;;;;;5122543;27;20730;-66
2021/01/26 11:25:15;;;;;;;3.40;3.15;;;;;;;;;;5122169;27;20015;-67
2021/01/26 11:27:41;;;;;;;2.63;2.17;;;;;;;;;;5122785;27;20029;-66
2021/01/26 11:30:09;;;;;;;2.33;1.90;;;;;;;;;;5118254;27;20530;-66
2021/01/26 11:32:35;;;;;;;2.67;2.47;;;;;;;;;;5122412;27;20163;-66
2021/01/26 11:35:02;;;;;;;3.80;2.15;;;;;;;;;;5122940;27;20390;-67
2021/01/26 11:37:28;;;;;;;3.08;2.15;;;;;;;;;;5123992;27;20031;-67
2021/01/26 11:39:54;;;;;;;2.00;1.35;;;;;;;;;;5121050;27;20552;-67
2021/01/26 11:42:21;;;;;;;2.80;2.25;;;;;;;;;;5119344;27;20490;-67
2021/01/26 11:44:48;;;;;;;2.28;1.52;;;;;;;;;;5117506;27;20042;-67
2021/01/26 11:47:14;;;;;;;1.77;1.52;;;;;;;;;;5123506;27;20031;-66
2021/01/26 11:49:40;;;;;;;3.38;1.80;;;;;;;;;;5119579;27;20131;-67
2021/01/26 11:52:07;;;;;;;1.60;1.50;;;;;;;;;;5118947;28;20023;-67
2021/01/26 11:54:33;;;;;;;2.55;2.35;;;;;;;;;;5124400;28;20023;-67
2021/01/26 11:56:59;;;;;;;2.50;1.88;;;;;;;;;;5124178;28;20038;-67
2021/01/26 11:59:25;;;;;;;1.83;1.30;;;;;;;;;;5121077;28;20035;-67
2021/01/26 12:01:53;;;;;;;1.80;1.60;;;;;;;;;;5121253;28;20123;-67
2021/01/26 12:04:19;;;;;;;5.72;2.22;;;;;;;;;;5120979;28;20631;-67
2021/01/26 12:06:45;;;;;;;1.67;1.58;;;;;;;;;;5118709;28;20031;-67
2021/01/26 12:09:13;;;;;;;1.60;1.50;;;;;;;;;;5117568;27;20515;-67
2021/01/26 12:11:39;;;;;;;0.98;0.98;;;;;;;;;;5115906;27;20031;-67
2021/01/26 12:14:07;;;;;;;1.52;1.10;;;;;;;;;;5139447;27;20035;-67
2021/01/26 12:16:33;;;;;;;2.05;1.67;;;;;;;;;;5125689;27;20051;-67
2021/01/26 12:18:59;;;;;;;2.50;1.80;;;;;;;;;;5114953;28;20499;-66
2021/01/26 12:21:26;;;;;;;2.80;2.22;;;;;;;;;;5112018;27;20088;-68
2021/01/26 12:23:52;;;;;;;4.28;3.40;;;;;;;;;;5120028;27;20039;-67
2021/01/26 12:26:19;;;;;;;5.43;3.30;;;;;;;;;;5125750;27;20054;-66
2021/01/26 12:28:45;;;;;;;3.97;3.22;;;;;;;;;;5118853;27;20565;-67
2021/01/26 12:31:11;;;;;;;4.65;4.25;;;;;;;;;;5111210;27;20487;-67
2021/01/26 12:33:37;;;;;;;8.65;3.92;;;;;;;;;;5126902;27;20478;-66
2021/01/26 12:36:04;;;;;;;4.45;3.13;;;;;;;;;;5131308;27;20057;-66
2021/01/26 12:38:31;;;;;;;2.78;2.47;;;;;;;;;;5125097;27;20034;-67
2021/01/26 12:40:57;;;;;;;4.38;3.13;;;;;;;;;;5129304;27;20047;-66
2021/01/26 12:43:23;;;;;;;4.28;2.78;;;;;;;;;;5120696;27;20114;-67
2021/01/26 12:45:50;;;;;;;2.92;2.30;;;;;;;;;;5124897;27;20031;-67
2021/01/26 12:48:16;;;;;;;5.05;2.17;;;;;;;;;;5125195;27;20030;-67
2021/01/26 12:50:43;;;;;;;3.28;2.33;;;;;;;;;;5124829;27;20030;-70
2021/01/26 12:53:09;;;;;;;4.22;3.83;;;;;;;;;;5116976;27;20046;-65
2021/01/26 12:55:36;;;;;;;5.22;2.63;;;;;;;;;;5121618;27;20498;-66
2021/01/26 12:58:02;;;;;;;2.92;2.33;;;;;;;;;;5124425;27;20031;-67
2021/01/26 13:00:28;;;;;;;2.40;1.98;;;;;;;;;;5124915;27;20015;-66
2021/01/26 13:02:55;;;;;;;3.17;2.30;;;;;;;;;;5123221;27;20324;-67
2021/01/26 13:05:21;;;;;;;3.88;2.03;;;;;;;;;;5121160;27;20044;-66
2021/01/26 13:07:48;;;;;;;2.08;1.88;;;;;;;;;;5123863;27;20019;-66
2021/01/26 13:10:14;;;;;;;2.20;2.00;;;;;;;;;;5112273;27;20039;-68
2021/01/26 13:12:40;;;;;;;1.80;1.58;;;;;;;;;;5124506;27;20023;-65
2021/01/26 13:15:07;;;;;;;2.22;2.03;;;;;;;;;;5123514;27;20106;-65
2021/01/26 13:17:33;;;;;;;4.10;2.50;;;;;;;;;;5123282;27;20110;-65
2021/01/26 13:19:59;;;;;;;1.55;1.45;;;;;;;;;;5104373;27;20580;-65
2021/01/26 13:22:26;;;;;;;3.00;2.05;;;;;;;;;;5115435;27;20530;-65
2021/01/26 13:24:52;;;;;;;4.03;1.90;;;;;;;;;;5112676;27;20031;-65
2021/01/26 13:27:18;;;;;;;1.83;1.35;;;;;;;;;;5127044;27;20023;-65
2021/01/26 13:29:44;;;;;;;1.85;1.67;;;;;;;;;;5126061;27;20088;-65
2021/01/26 13:32:13;;;;;;;2.70;1.40;;;;;;;;;;5126198;27;20027;-65
2021/01/26 13:34:39;;;;;;;2.78;2.50;;;;;;;;;;5129593;27;20053;-65
2021/01/26 13:37:06;;;;;;;2.30;1.75;;;;;;;;;;5137637;27;20513;-65
2021/01/26 13:39:33;;;;;;;3.45;1.88;;;;;;;;;;5133315;27;20022;-65
2021/01/26 13:41:59;;;;;;;1.38;1.27;;;;;;;;;;5116634;27;20075;-65
2021/01/26 13:44:26;;;;;;;2.22;1.60;;;;;;;;;;5131697;27;20027;-65
2021/01/26 13:46:52;;;;;;;2.10;1.40;;;;;;;;;;5112699;27;20058;-65
2021/01/26 13:49:19;;;;;;;2.35;2.03;;;;;;;;;;5120276;27;20038;-65
2021/01/26 13:51:45;;;;;;;1.42;1.10;;;;;;;;;;5132571;27;20442;-65
2021/01/26 13:54:12;;;;;;;3.63;1.58;;;;;;;;;;5123194;27;20079;-65
2021/01/26 13:56:38;;;;;;;2.97;2.05;;;;;;;;;;5117119;27;20031;-65
2021/01/26 13:59:04;;;;;;;2.70;1.30;;;;;;;;;;5123697;27;20035;-65
2021/01/26 14:01:30;;;;;;;1.60;1.30;;;;;;;;;;5136348;27;20142;-65
2021/01/26 14:03:56;;;;;;;1.85;1.73;;;;;;;;;;5152693;27;20018;-65
2021/01/26 14:06:22;;;;;;;1.48;0.90;;;;;;;;;;5119658;27;20104;-65
2021/01/26 14:08:50;;;;;;;1.48;1.08;;;;;;;;;;5124762;27;20463;-65
2021/01/26 14:11:16;;;;;;;1.30;1.20;;;;;;;;;;5125735;27;20125;-66
2021/01/26 14:13:42;;;;;;;1.67;1.45;;;;;;;;;;5125385;27;20051;-65
2021/01/26 14:16:10;;;;;;;1.73;1.38;;;;;;;;;;5125568;27;20047;-67
2021/01/26 14:18:37;;;;;;;1.40;1.10;;;;;;;;;;5127837;27;20480;-66
2021/01/26 14:21:03;;;;;;;2.83;1.17;;;;;;;;;;5129529;27;20444;-65
2021/01/26 14:23:29;;;;;;;3.58;2.00;;;;;;;;;;5131431;27;20027;-65
2021/01/26 14:25:55;;;;;;;0.90;0.90;;;;;;;;;;5128747;27;20154;-65
2021/01/26 14:28:21;;;;;;;2.55;1.38;;;;;;;;;;5119137;27;20035;-65
2021/01/26 14:30:47;;;;;;;1.30;1.20;;;;;;;;;;5119170;27;20028;-66
2021/01/26 14:33:14;;;;;;;2.40;1.08;;;;;;;;;;5129678;27;20370;-66
2021/01/26 14:35:40;;;;;;;4.93;1.20;;;;;;;;;;5125985;27;20031;-65
2021/01/26 14:38:07;;;;;;;1.30;1.20;;;;;;;;;;5126592;27;20549;-65
2021/01/26 14:40:33;;;;;;;1.92;1.63;;;;;;;;;;5132693;27;20050;-66
2021/01/26 14:42:59;;;;;;;1.02;0.95;;;;;;;;;;5126808;27;20027;-65
2021/01/26 14:45:25;;;;;;;3.55;1.52;;;;;;;;;;5124331;27;20062;-65
2021/01/26 14:47:52;;;;;;;1.70;1.30;;;;;;;;;;5130261;27;20438;-66
2021/01/26 14:50:19;;;;;;;4.28;1.15;;;;;;;;;;5119139;27;20046;-65
2021/01/26 14:52:45;;;;;;;5.70;1.33;;;;;;;;;;5124956;27;20494;-65
2021/01/26 14:55:12;;;;;;;1.52;1.42;;;;;;;;;;5124174;27;20041;-66
2021/01/26 14:57:39;;;;;;;3.47;1.55;;;;;;;;;;5130760;27;20035;-65